Waddell, Arizona
Current Conditions -  °F | °C
As of 1:58 PM on Monday 24 Nov 2014 (Local Time) from KLUF Reporting Station
Few Clouds Few Clouds  
Wind Chill: 20°   Ceiling: Unl
Heat Index: 20°   Visibility: 10mi
Dew Point: -13°   Wind: 8mph
Humidity: 10%   Direction: 200°SSW
Pressure: 30.17"   Gusts: NA
Location:  33.57°N, 112.43°W
Report Text: KLUF 242058Z 20007KT 10SM FEW250 20/M13 A3017 RMK AO2A SLP214 T01991130 57021 $
Loading
Personal Weather Stations






























Interactive Weather Map New forecast layout! Learn more

10-Day Weather Forecast

Advertisements
Track Severe Weather on mobile